createdAt,value
2022-10-23T00:01:44.409Z,1.20
2022-10-23T00:04:22.395Z,1.20
2022-10-23T00:06:49.987Z,1.20
2022-10-23T00:09:20.987Z,1.20
2022-10-23T00:11:48.959Z,1.20
2022-10-23T00:14:18.166Z,1.20
2022-10-23T00:16:45.368Z,1.20
2022-10-23T00:19:12.594Z,1.10
2022-10-23T00:21:39.559Z,1.20
2022-10-23T00:26:38.348Z,1.20
2022-10-23T00:29:05.263Z,1.20
2022-10-23T00:31:32.420Z,1.30
2022-10-23T00:34:00.160Z,1.40
2022-10-23T00:36:27.246Z,1.40
2022-10-23T00:38:54.679Z,1.40
2022-10-23T00:41:32.210Z,1.40
2022-10-23T00:44:22.507Z,1.40
2022-10-23T00:46:49.581Z,1.40
2022-10-23T00:49:16.591Z,1.30
2022-10-23T00:51:45.223Z,1.30
2022-10-23T00:54:29.415Z,1.40
2022-10-23T00:57:02.163Z,1.40
2022-10-23T00:59:30.167Z,1.50
2022-10-23T01:01:57.670Z,1.40
2022-10-23T01:04:27.642Z,1.50
2022-10-23T01:07:18.365Z,1.50
2022-10-23T01:10:06.367Z,1.60
2022-10-23T01:13:08.549Z,1.60
2022-10-23T01:15:52.757Z,1.60
2022-10-23T01:18:40.698Z,1.60
2022-10-23T01:21:26.078Z,1.50
2022-10-23T01:24:12.309Z,1.50
2022-10-23T01:27:11.406Z,1.40
2022-10-23T01:29:51.864Z,1.40
2022-10-23T01:32:33.273Z,1.50
2022-10-23T01:35:20.415Z,1.50
2022-10-23T01:38:17.054Z,1.50
2022-10-23T01:40:49.277Z,1.50
2022-10-23T01:43:29.777Z,1.60
2022-10-23T01:46:02.307Z,1.60
2022-10-23T01:48:32.533Z,1.60
2022-10-23T01:51:02.092Z,1.60
2022-10-23T01:53:33.164Z,1.60
2022-10-23T01:56:02.865Z,1.60
2022-10-23T01:58:34.635Z,1.60
2022-10-23T02:01:06.014Z,1.60
2022-10-23T02:03:41.767Z,1.70
2022-10-23T02:06:08.834Z,1.60
2022-10-23T02:08:36.060Z,1.60
2022-10-23T02:11:19.979Z,1.60
2022-10-23T02:14:16.204Z,1.60
2022-10-23T02:16:51.894Z,1.60
2022-10-23T02:19:18.980Z,1.60
2022-10-23T02:21:54.326Z,1.60
2022-10-23T02:24:34.240Z,1.70
2022-10-23T02:27:07.947Z,1.70
2022-10-23T02:29:40.417Z,1.70
2022-10-23T02:32:09.929Z,1.80
2022-10-23T02:34:37.234Z,1.80
2022-10-23T02:37:04.278Z,1.90
2022-10-23T02:39:31.288Z,1.90
2022-10-23T02:42:02.682Z,1.90
2022-10-23T02:44:40.382Z,2.00
2022-10-23T02:47:32.155Z,2.00
2022-10-23T02:50:18.071Z,2.00
2022-10-23T02:53:07.704Z,2.00
2022-10-23T02:56:12.880Z,2.00
2022-10-23T02:58:49.283Z,1.90
2022-10-23T03:01:21.499Z,1.90
2022-10-23T03:03:58.227Z,1.90
2022-10-23T03:06:26.760Z,1.90
2022-10-23T03:08:58.056Z,1.90
2022-10-23T03:11:26.391Z,2.00
2022-10-23T03:13:55.068Z,2.00
2022-10-23T03:16:22.293Z,2.00
2022-10-23T03:18:53.108Z,2.00
2022-10-23T03:21:20.510Z,2.00
2022-10-23T03:23:51.031Z,2.00
2022-10-23T03:26:22.788Z,2.10
2022-10-23T03:28:49.740Z,2.00
2022-10-23T03:31:19.095Z,2.00
2022-10-23T03:33:46.869Z,2.00
2022-10-23T03:36:13.923Z,2.00
2022-10-23T03:38:40.819Z,2.00
2022-10-23T03:41:07.692Z,2.00
2022-10-23T03:43:34.593Z,2.00
2022-10-23T03:46:02.663Z,2.00
2022-10-23T03:48:29.527Z,2.00
2022-10-23T03:50:58.695Z,2.00
2022-10-23T03:53:25.580Z,2.00
2022-10-23T03:55:53.041Z,2.00
2022-10-23T03:58:19.924Z,2.00
2022-10-23T04:00:46.767Z,2.00
2022-10-23T04:03:13.960Z,2.00
2022-10-23T04:05:42.798Z,2.10
2022-10-23T04:08:10.340Z,2.10
2022-10-23T04:10:37.906Z,2.10
2022-10-23T04:13:04.786Z,2.10
2022-10-23T04:15:35.303Z,2.20
2022-10-23T04:18:02.669Z,2.20
2022-10-23T04:20:32.161Z,2.20
2022-10-23T04:23:02.282Z,2.20
2022-10-23T04:25:29.643Z,2.20
2022-10-23T04:27:56.436Z,2.20
2022-10-23T04:30:23.304Z,2.20
2022-10-23T04:32:53.448Z,2.30
2022-10-23T04:35:20.566Z,2.30
2022-10-23T04:37:47.496Z,2.30
2022-10-23T04:40:14.374Z,2.30
2022-10-23T04:42:41.509Z,2.40
2022-10-23T04:45:09.150Z,2.40
2022-10-23T04:47:36.131Z,2.40
2022-10-23T04:50:04.063Z,2.40
2022-10-23T04:52:53.458Z,2.40
2022-10-23T04:55:58.907Z,2.40
2022-10-23T04:58:44.050Z,2.40
2022-10-23T05:01:11.662Z,2.30
2022-10-23T05:03:39.556Z,2.30
2022-10-23T05:06:07.131Z,2.20
2022-10-23T05:08:52.467Z,2.20
2022-10-23T05:11:22.278Z,2.20
2022-10-23T05:13:50.789Z,2.20
2022-10-23T05:16:44.052Z,2.20
2022-10-23T05:19:14.894Z,2.20
2022-10-23T05:21:42.313Z,2.10
2022-10-23T05:24:10.696Z,2.10
2022-10-23T05:26:37.598Z,2.20
2022-10-23T05:29:07.491Z,2.30
2022-10-23T05:31:35.494Z,2.30
2022-10-23T05:34:13.398Z,2.30
2022-10-23T05:36:44.029Z,2.20
2022-10-23T05:39:11.219Z,2.20
2022-10-23T05:41:38.177Z,2.20
2022-10-23T05:44:05.188Z,2.20
2022-10-23T05:46:52.392Z,2.30
2022-10-23T05:49:37.813Z,2.30
2022-10-23T05:52:30.818Z,2.30
2022-10-23T05:55:10.705Z,2.30
2022-10-23T05:57:53.086Z,2.30
2022-10-23T06:00:31.249Z,2.30
2022-10-23T06:03:17.745Z,2.30
2022-10-23T06:05:50.371Z,2.40
2022-10-23T06:08:20.535Z,2.50
2022-10-23T06:10:50.160Z,2.40
2022-10-23T06:13:18.110Z,2.50
2022-10-23T06:15:45.147Z,2.50
2022-10-23T06:18:19.205Z,2.40
2022-10-23T06:20:53.813Z,2.50
2022-10-23T06:23:25.903Z,2.50
2022-10-23T06:26:17.399Z,2.60
2022-10-23T06:29:10.324Z,2.60
2022-10-23T06:31:38.158Z,2.70
2022-10-23T06:34:06.169Z,2.60
2022-10-23T06:36:33.343Z,2.60
2022-10-23T06:39:31.961Z,2.60
2022-10-23T06:42:07.635Z,2.70
2022-10-23T06:44:53.220Z,2.60
2022-10-23T06:47:43.434Z,2.60
2022-10-23T06:50:47.991Z,2.70
2022-10-23T06:53:20.005Z,2.70
2022-10-23T06:55:55.335Z,2.70
2022-10-23T06:58:23.095Z,2.70
2022-10-23T07:01:12.963Z,2.80
2022-10-23T07:03:42.351Z,2.80
2022-10-23T07:06:10.734Z,2.80
2022-10-23T07:08:38.453Z,2.80
2022-10-23T07:11:18.370Z,2.90
2022-10-23T07:13:48.555Z,2.80
2022-10-23T07:16:23.118Z,2.80
2022-10-23T07:18:59.413Z,2.90
2022-10-23T07:21:34.914Z,2.90
2022-10-23T07:24:22.073Z,2.90
2022-10-23T07:29:23.807Z,2.90
2022-10-23T07:31:50.744Z,2.90
2022-10-23T07:34:36.927Z,3.00
2022-10-23T07:37:39.812Z,3.00
2022-10-23T07:40:07.984Z,3.00
2022-10-23T07:42:41.580Z,3.00
2022-10-23T07:45:09.298Z,3.00
2022-10-23T07:47:39.753Z,3.00
2022-10-23T07:50:07.497Z,3.10
2022-10-23T07:52:36.229Z,3.20
2022-10-23T07:55:09.987Z,3.20
2022-10-23T07:57:40.257Z,3.20
2022-10-23T08:00:30.244Z,3.20
2022-10-23T08:03:08.379Z,3.30
2022-10-23T08:05:36.349Z,3.20
2022-10-23T08:08:04.420Z,3.20
2022-10-23T08:10:31.802Z,3.20
2022-10-23T08:12:59.667Z,3.20
2022-10-23T08:15:50.127Z,3.20
2022-10-23T08:18:52.502Z,3.30
2022-10-23T08:21:20.062Z,3.30
2022-10-23T08:23:49.177Z,3.30
2022-10-23T08:26:16.420Z,3.40
2022-10-23T08:28:43.195Z,3.30
2022-10-23T08:31:17.070Z,3.40
2022-10-23T08:33:58.872Z,3.40
2022-10-23T08:36:28.535Z,3.40
2022-10-23T08:38:57.715Z,3.50
2022-10-23T08:41:33.559Z,3.50
2022-10-23T08:44:30.218Z,3.50
2022-10-23T08:47:14.640Z,3.60
2022-10-23T08:50:06.888Z,3.60
2022-10-23T08:52:59.611Z,3.60
2022-10-23T08:55:31.046Z,3.60
2022-10-23T08:58:00.928Z,3.70
2022-10-23T09:00:28.464Z,3.70
2022-10-23T09:02:56.168Z,3.70
2022-10-23T09:05:39.677Z,3.80
2022-10-23T09:08:19.690Z,3.80
2022-10-23T09:11:29.639Z,3.90
2022-10-23T09:14:15.208Z,3.90
2022-10-23T09:17:06.217Z,4.00
2022-10-23T09:19:33.468Z,4.00
2022-10-23T09:22:00.513Z,4.00
2022-10-23T09:24:31.767Z,4.10
2022-10-23T09:27:00.461Z,4.10
2022-10-23T09:29:31.941Z,4.10
2022-10-23T09:32:00.705Z,4.10
2022-10-23T09:34:29.869Z,4.10
2022-10-23T09:37:17.355Z,4.10
2022-10-23T09:39:44.233Z,4.10
2022-10-23T09:42:25.724Z,4.10
2022-10-23T09:44:54.744Z,4.10
2022-10-23T09:47:24.517Z,4.20
2022-10-23T09:49:56.768Z,4.20
2022-10-23T09:52:35.969Z,4.20
2022-10-23T09:55:18.561Z,4.30
2022-10-23T09:57:46.872Z,4.40
2022-10-23T10:00:14.715Z,4.40
2022-10-23T10:02:59.095Z,4.40
2022-10-23T10:05:55.059Z,4.50
2022-10-23T10:08:44.267Z,4.60
2022-10-23T10:11:30.644Z,4.60
2022-10-23T10:14:21.650Z,4.70
2022-10-23T10:17:17.676Z,4.70
2022-10-23T10:19:44.454Z,4.80
2022-10-23T10:22:30.262Z,4.90
2022-10-23T10:25:01.486Z,4.90
2022-10-23T10:27:39.146Z,4.90
2022-10-23T10:30:13.093Z,5.00
2022-10-23T10:32:49.070Z,5.00
2022-10-23T10:35:45.885Z,5.10
2022-10-23T10:38:46.724Z,5.10
2022-10-23T10:41:36.906Z,5.00
2022-10-23T10:44:39.308Z,5.10
2022-10-23T10:47:30.473Z,5.10
2022-10-23T10:50:14.909Z,5.20
2022-10-23T10:53:02.491Z,5.20
2022-10-23T10:55:42.014Z,5.30
2022-10-23T10:58:33.664Z,5.40
2022-10-23T11:01:06.097Z,5.40
2022-10-23T11:04:01.530Z,5.40
2022-10-23T11:06:32.216Z,5.50
2022-10-23T11:09:19.844Z,5.50
2022-10-23T11:11:48.688Z,5.50
2022-10-23T11:14:16.686Z,5.50
2022-10-23T11:16:46.651Z,5.50
2022-10-23T11:19:44.606Z,5.50
2022-10-23T11:22:30.155Z,5.50
2022-10-23T11:25:33.855Z,5.50
2022-10-23T11:28:25.863Z,5.60
2022-10-23T11:30:57.284Z,5.60
2022-10-23T11:33:55.043Z,5.70
2022-10-23T11:36:40.674Z,5.70
2022-10-23T11:39:20.154Z,5.80
2022-10-23T11:42:09.958Z,5.80
2022-10-23T11:44:42.902Z,5.70
2022-10-23T11:47:25.083Z,5.70
2022-10-23T11:50:04.090Z,5.80
2022-10-23T11:52:30.979Z,5.90
2022-10-23T11:55:17.772Z,5.90
2022-10-23T11:58:09.719Z,6.00
2022-10-23T12:00:49.461Z,6.00
2022-10-23T12:03:22.099Z,5.90
2022-10-23T12:05:59.016Z,5.90
2022-10-23T12:08:29.291Z,5.90
2022-10-23T12:10:56.348Z,5.80
2022-10-23T12:13:45.846Z,5.80
2022-10-23T12:16:13.434Z,5.70
2022-10-23T12:18:52.993Z,5.60
2022-10-23T12:21:28.460Z,5.60
2022-10-23T12:24:39.866Z,5.60
2022-10-23T12:27:16.640Z,5.60
2022-10-23T12:30:01.898Z,5.50
2022-10-23T12:32:46.749Z,5.50
2022-10-23T12:35:53.752Z,5.50
2022-10-23T12:38:33.811Z,5.50
2022-10-23T12:41:15.891Z,5.50
2022-10-23T12:43:58.374Z,5.60
2022-10-23T12:46:46.162Z,5.60
2022-10-23T12:49:34.330Z,5.60
2022-10-23T12:52:17.630Z,5.60
2022-10-23T12:54:44.991Z,5.70
2022-10-23T12:57:25.879Z,5.70
2022-10-23T12:59:57.917Z,5.70
2022-10-23T13:02:30.078Z,5.70
2022-10-23T13:05:01.992Z,5.60
2022-10-23T13:07:31.745Z,5.60
2022-10-23T13:10:02.741Z,5.50
2022-10-23T13:12:35.555Z,5.50
2022-10-23T13:15:08.372Z,5.50
2022-10-23T13:17:58.391Z,5.50
2022-10-23T13:20:31.091Z,5.50
2022-10-23T13:23:18.807Z,5.50
2022-10-23T13:26:06.276Z,5.50
2022-10-23T13:28:35.114Z,5.50
2022-10-23T13:31:01.963Z,5.50
2022-10-23T13:33:38.105Z,5.50
2022-10-23T13:36:07.584Z,5.60
2022-10-23T13:38:39.671Z,5.60
2022-10-23T13:41:15.296Z,5.60
2022-10-23T13:43:43.135Z,5.50
2022-10-23T13:46:18.348Z,5.50
2022-10-23T13:48:46.301Z,5.60
2022-10-23T13:51:16.007Z,5.50
2022-10-23T13:53:42.858Z,5.50
2022-10-23T13:56:14.905Z,5.60
2022-10-23T13:58:42.167Z,5.60
2022-10-23T14:01:24.353Z,5.60
2022-10-23T14:03:52.566Z,5.60
2022-10-23T14:06:20.079Z,5.60
2022-10-23T14:08:47.126Z,5.70
2022-10-23T14:11:15.955Z,5.60
2022-10-23T14:13:43.358Z,5.60
2022-10-23T14:16:12.785Z,5.60
2022-10-23T14:18:40.043Z,5.50
2022-10-23T14:21:08.558Z,5.60
2022-10-23T14:23:35.338Z,5.60
2022-10-23T14:26:11.489Z,5.50
2022-10-23T14:28:38.919Z,5.60
2022-10-23T14:31:16.800Z,5.60
2022-10-23T14:33:44.996Z,5.60
2022-10-23T14:36:12.027Z,5.50
2022-10-23T14:38:38.883Z,5.50
2022-10-23T14:41:13.692Z,5.50
2022-10-23T14:43:40.736Z,5.50
2022-10-23T14:46:16.192Z,5.60
2022-10-23T14:48:46.179Z,5.50
2022-10-23T14:51:27.071Z,5.50
2022-10-23T14:53:59.742Z,5.60
2022-10-23T14:56:26.977Z,5.60
2022-10-23T14:58:54.604Z,5.60
2022-10-23T15:01:21.520Z,5.60
2022-10-23T15:03:54.715Z,5.50
2022-10-23T15:06:21.952Z,5.50
2022-10-23T15:08:54.810Z,5.40
2022-10-23T15:11:23.528Z,5.50
2022-10-23T15:13:50.934Z,5.40
2022-10-23T15:16:18.167Z,5.40
2022-10-23T15:18:44.963Z,5.30
2022-10-23T15:21:14.084Z,5.30
2022-10-23T15:23:43.218Z,5.30
2022-10-23T15:26:14.124Z,5.20
2022-10-23T15:28:40.995Z,5.20
2022-10-23T15:31:29.264Z,5.20
2022-10-23T15:34:00.154Z,5.20
2022-10-23T15:36:27.124Z,5.10
2022-10-23T15:38:53.988Z,5.10
2022-10-23T15:41:31.239Z,5.10
2022-10-23T15:44:02.875Z,5.20
2022-10-23T15:46:30.252Z,5.20
2022-10-23T15:48:57.086Z,5.20
2022-10-23T15:51:25.481Z,5.10
2022-10-23T15:53:52.683Z,5.10
2022-10-23T15:56:19.618Z,5.10
2022-10-23T15:58:46.472Z,5.10
2022-10-23T16:01:13.594Z,5.10
2022-10-23T16:03:40.573Z,5.10
2022-10-23T16:06:13.753Z,5.10
2022-10-23T16:08:41.615Z,5.00
2022-10-23T16:11:18.749Z,5.00
2022-10-23T16:13:45.936Z,5.00
2022-10-23T16:16:13.780Z,5.00
2022-10-23T16:18:41.165Z,5.00
2022-10-23T16:21:15.151Z,5.10
2022-10-23T16:23:42.051Z,5.10
2022-10-23T16:26:08.875Z,5.10
2022-10-23T16:28:36.055Z,5.10
2022-10-23T16:31:03.378Z,5.10
2022-10-23T16:33:30.155Z,5.10
2022-10-23T16:36:03.418Z,5.10
2022-10-23T16:38:30.318Z,5.00
2022-10-23T16:40:57.206Z,5.00
2022-10-23T16:43:43.758Z,5.00
2022-10-23T16:46:24.082Z,5.00
2022-10-23T16:48:52.402Z,5.00
2022-10-23T16:51:22.618Z,5.00
2022-10-23T16:53:50.423Z,5.00
2022-10-23T16:56:22.402Z,5.00
2022-10-23T16:58:49.258Z,5.00
2022-10-23T17:01:19.297Z,5.00
2022-10-23T17:03:48.309Z,4.90
2022-10-23T17:06:17.990Z,5.00
2022-10-23T17:08:45.641Z,5.00
2022-10-23T17:11:15.451Z,5.00
2022-10-23T17:13:53.636Z,4.90
2022-10-23T17:16:46.023Z,4.90
2022-10-23T17:19:39.757Z,4.90
2022-10-23T17:22:02.345Z,4.90
2022-10-23T17:24:29.579Z,4.90
2022-10-23T17:26:56.970Z,4.90
2022-10-23T17:29:23.850Z,4.90
2022-10-23T17:31:51.684Z,4.90
2022-10-23T17:34:21.934Z,4.90
2022-10-23T17:36:52.238Z,4.90
2022-10-23T17:39:21.755Z,4.90
2022-10-23T17:41:49.032Z,4.90
2022-10-23T17:44:16.102Z,4.90
2022-10-23T17:46:43.090Z,4.90
2022-10-23T17:49:11.425Z,4.90
2022-10-23T17:51:38.603Z,4.90
2022-10-23T17:54:10.639Z,4.90
2022-10-23T17:56:38.397Z,4.90
2022-10-23T17:59:15.614Z,4.90
2022-10-23T18:01:44.052Z,5.00
2022-10-23T18:04:11.032Z,5.00
2022-10-23T18:06:52.714Z,5.00
2022-10-23T18:09:21.743Z,5.10
2022-10-23T18:11:49.431Z,5.10
2022-10-23T18:14:18.224Z,5.10
2022-10-23T18:16:45.958Z,5.10
2022-10-23T18:19:14.188Z,5.10
2022-10-23T18:21:41.057Z,5.10
2022-10-23T18:24:08.174Z,5.10
2022-10-23T18:26:37.578Z,5.00
2022-10-23T18:29:07.611Z,5.10
2022-10-23T18:31:37.102Z,5.00
2022-10-23T18:34:07.647Z,5.00
2022-10-23T18:36:37.952Z,5.00
2022-10-23T18:39:06.152Z,5.00
2022-10-23T18:41:36.537Z,4.90
2022-10-23T18:44:04.332Z,4.90
2022-10-23T18:46:31.734Z,4.90
2022-10-23T18:48:58.824Z,4.90
2022-10-23T18:51:28.992Z,4.90
2022-10-23T18:53:56.964Z,4.90
2022-10-23T18:56:26.816Z,4.90
2022-10-23T18:58:57.036Z,4.90
2022-10-23T19:01:24.877Z,4.90
2022-10-23T19:03:51.876Z,4.90
2022-10-23T19:06:19.664Z,4.90
2022-10-23T19:08:47.286Z,4.90
2022-10-23T19:11:17.323Z,4.90
2022-10-23T19:13:44.491Z,4.90
2022-10-23T19:16:21.434Z,4.90
2022-10-23T19:19:02.892Z,4.90
2022-10-23T19:21:34.733Z,4.90
2022-10-23T19:24:05.923Z,4.90
2022-10-23T19:26:35.805Z,4.90
2022-10-23T19:29:04.612Z,4.90
2022-10-23T19:31:31.757Z,4.90
2022-10-23T19:33:58.617Z,4.80
2022-10-23T19:36:25.462Z,4.80
2022-10-23T19:38:52.359Z,4.70
2022-10-23T19:41:19.270Z,4.70
2022-10-23T19:43:46.183Z,4.80
2022-10-23T19:46:13.107Z,4.80
2022-10-23T19:48:44.578Z,4.70
2022-10-23T19:51:13.291Z,4.80
2022-10-23T19:53:41.845Z,4.70
2022-10-23T19:56:11.102Z,4.70
2022-10-23T19:58:38.777Z,4.70
2022-10-23T20:01:11.797Z,4.70
2022-10-23T20:03:40.379Z,4.70
2022-10-23T20:06:11.934Z,4.70
2022-10-23T20:08:39.751Z,4.70
2022-10-23T20:11:07.642Z,4.60
2022-10-23T20:13:35.003Z,4.60
2022-10-23T20:16:01.869Z,4.60
2022-10-23T20:18:28.700Z,4.60
2022-10-23T20:20:55.870Z,4.60
2022-10-23T20:23:22.874Z,4.60
2022-10-23T20:25:49.748Z,4.60
2022-10-23T20:28:17.098Z,4.60
2022-10-23T20:30:45.504Z,4.60
2022-10-23T20:33:12.350Z,4.70
2022-10-23T20:35:43.067Z,4.70
2022-10-23T20:38:10.305Z,4.70
2022-10-23T20:40:37.326Z,4.70
2022-10-23T20:43:04.284Z,4.60
2022-10-23T20:45:31.187Z,4.70
2022-10-23T20:47:58.058Z,4.70
2022-10-23T20:50:24.988Z,4.70
2022-10-23T20:52:52.052Z,4.70
2022-10-23T20:55:19.775Z,4.70
2022-10-23T20:57:47.098Z,4.80
2022-10-23T21:00:15.260Z,4.80
2022-10-23T21:02:42.357Z,4.80
2022-10-23T21:05:10.738Z,4.80
2022-10-23T21:07:37.667Z,4.80
2022-10-23T21:10:05.435Z,4.80
2022-10-23T21:12:32.262Z,4.80
2022-10-23T21:14:59.127Z,4.90
2022-10-23T21:17:26.051Z,4.90
2022-10-23T21:19:53.007Z,4.80
2022-10-23T21:22:19.883Z,4.90
2022-10-23T21:24:46.834Z,4.90
2022-10-23T21:27:15.223Z,4.90
2022-10-23T21:29:42.198Z,4.90
2022-10-23T21:32:09.143Z,4.90
2022-10-23T21:34:36.180Z,4.90
2022-10-23T21:37:13.581Z,4.90
2022-10-23T21:39:44.924Z,4.90
2022-10-23T21:42:13.954Z,4.90
2022-10-23T21:44:41.026Z,4.90
2022-10-23T21:47:08.059Z,4.90
2022-10-23T21:49:35.052Z,5.00
2022-10-23T21:52:04.983Z,5.00
2022-10-23T21:54:32.009Z,5.10
2022-10-23T21:56:58.830Z,5.10
2022-10-23T21:59:29.962Z,5.10
2022-10-23T22:01:59.153Z,5.10
2022-10-23T22:04:26.179Z,5.10
2022-10-23T22:06:53.433Z,5.00
2022-10-23T22:09:22.115Z,5.00
2022-10-23T22:11:53.663Z,5.00
2022-10-23T22:14:21.495Z,5.10
2022-10-23T22:16:48.645Z,5.10
2022-10-23T22:19:17.336Z,5.10
2022-10-23T22:21:44.666Z,5.10
2022-10-23T22:24:11.791Z,5.10
2022-10-23T22:26:41.813Z,5.10
2022-10-23T22:29:11.916Z,5.20
2022-10-23T22:31:44.040Z,5.20
2022-10-23T22:34:25.362Z,5.20
2022-10-23T22:37:00.918Z,5.10
2022-10-23T22:39:27.778Z,5.10
2022-10-23T22:41:54.668Z,5.10
2022-10-23T22:44:21.575Z,5.10
2022-10-23T22:46:48.544Z,5.20
2022-10-23T22:49:15.412Z,5.20
2022-10-23T22:51:42.310Z,5.20
2022-10-23T22:54:10.098Z,5.20
2022-10-23T22:56:37.009Z,5.20
2022-10-23T22:59:04.622Z,5.20
2022-10-23T23:01:35.238Z,5.20
2022-10-23T23:04:13.725Z,5.20
2022-10-23T23:06:49.058Z,5.10
2022-10-23T23:09:18.033Z,5.00
2022-10-23T23:11:51.549Z,5.10
2022-10-23T23:14:23.079Z,5.00
2022-10-23T23:16:54.127Z,5.10
2022-10-23T23:19:23.004Z,5.10
2022-10-23T23:21:50.231Z,5.10
2022-10-23T23:24:17.134Z,5.20
2022-10-23T23:26:44.106Z,5.20
2022-10-23T23:29:11.223Z,5.20
2022-10-23T23:31:38.185Z,5.20
2022-10-23T23:34:05.570Z,5.20
2022-10-23T23:36:33.813Z,5.20
2022-10-23T23:39:00.920Z,5.20
2022-10-23T23:41:28.959Z,5.30
2022-10-23T23:43:58.034Z,5.30
2022-10-23T23:46:25.325Z,5.30
2022-10-23T23:48:52.243Z,5.30
2022-10-23T23:51:22.279Z,5.20
2022-10-23T23:53:49.611Z,5.20
2022-10-23T23:56:17.365Z,5.30
2022-10-23T23:58:44.766Z,5.30
